Time,TemperatureF,DewpointF,PressureIn,WindDirection,WindDirectionDegrees,WindSpeedMPH,WindSpeedGustMPH,Humidity,HourlyPrecipIn,Conditions,Clouds,dailyrainin,SoftwareType,DateUTC
2017-04-23 00:08:00,38.3,34.5,29.94,North,360,0.0,2.0,86,0.00,,---,0.00,VWS V14.01,2017-04-23 07:08:00,
2017-04-23 00:18:00,38.1,34.3,29.94,WSW,247,0.0,1.0,86,0.00,,---,0.00,VWS V14.01,2017-04-23 07:18:00,
2017-04-23 00:28:00,37.9,34.1,29.94,WSW,246,2.0,2.0,86,0.00,,---,0.00,VWS V14.01,2017-04-23 07:28:00,
2017-04-23 00:38:00,37.8,34.0,29.94,WSW,248,0.0,2.0,86,0.00,,---,0.00,VWS V14.01,2017-04-23 07:38:00,
2017-04-23 00:48:00,37.5,34.0,29.94,WSW,248,0.0,0.0,87,0.00,,---,0.00,VWS V14.01,2017-04-23 07:48:00,
2017-04-23 00:58:00,37.3,33.8,29.94,North,360,0.0,0.0,87,0.00,,---,0.00,VWS V14.01,2017-04-23 07:58:00,
2017-04-23 01:08:00,37.0,33.5,29.93,WSW,248,0.0,2.0,87,0.00,,---,0.00,VWS V14.01,2017-04-23 08:08:00,
2017-04-23 01:18:00,36.8,33.3,29.93,WSW,245,0.0,0.0,87,0.00,,---,0.00,VWS V14.01,2017-04-23 08:18:00,
2017-04-23 01:28:00,36.5,33.0,29.93,WSW,246,1.0,3.0,87,0.00,,---,0.00,VWS V14.01,2017-04-23 08:28:00,
2017-04-23 01:38:00,36.3,32.8,29.93,WSW,245,0.0,2.0,87,0.00,,---,0.00,VWS V14.01,2017-04-23 08:38:00,
2017-04-23 01:58:00,35.9,32.4,29.93,North,360,1.0,2.0,87,0.00,,---,0.00,VWS V14.01,2017-04-23 08:58:00,
2017-04-23 02:08:00,35.8,32.3,29.93,WSW,247,0.0,2.0,87,0.00,,---,0.00,VWS V14.01,2017-04-23 09:08:00,
2017-04-23 02:18:00,35.8,32.3,29.94,WSW,245,0.0,0.0,87,0.00,,---,0.00,VWS V14.01,2017-04-23 09:18:00,
2017-04-23 02:28:00,35.7,32.2,29.93,WSW,246,0.0,3.0,87,0.00,,---,0.00,VWS V14.01,2017-04-23 09:28:00,
2017-04-23 02:38:00,35.6,32.1,29.93,WSW,246,0.0,2.0,87,0.00,,---,0.00,VWS V14.01,2017-04-23 09:38:00,
2017-04-23 02:48:00,35.6,32.1,29.93,WSW,248,0.0,0.0,87,0.00,,---,0.00,VWS V14.01,2017-04-23 09:48:00,
2017-04-23 02:58:00,35.5,32.0,29.92,WSW,246,0.0,0.0,87,0.00,,---,0.00,VWS V14.01,2017-04-23 09:58:00,
2017-04-23 03:08:00,35.3,31.8,29.93,North,360,0.0,0.0,87,0.00,,---,0.00,VWS V14.01,2017-04-23 10:08:00,
2017-04-23 03:18:00,35.2,31.7,29.95,North,360,0.0,0.0,87,0.00,,---,0.00,VWS V14.01,2017-04-23 10:18:00,
2017-04-23 03:28:00,35.1,31.6,29.95,North,360,0.0,0.0,87,0.00,,---,0.00,VWS V14.01,2017-04-23 10:28:00,
2017-04-23 03:38:00,35.0,31.5,29.94,North,360,0.0,0.0,87,0.00,,---,0.00,VWS V14.01,2017-04-23 10:38:00,
2017-04-23 03:48:00,34.9,31.4,29.95,WSW,248,0.0,2.0,87,0.00,,---,0.00,VWS V14.01,2017-04-23 10:48:00,
2017-04-23 03:58:00,34.6,31.1,29.95,WSW,246,0.0,2.0,87,0.00,,---,0.00,VWS V14.01,2017-04-23 10:58:00,
2017-04-23 04:08:00,34.4,30.9,29.95,WSW,244,0.0,2.0,87,0.00,,---,0.00,VWS V14.01,2017-04-23 11:08:00,
2017-04-23 04:18:00,34.4,31.2,29.96,WSW,245,0.0,1.0,88,0.00,,---,0.00,VWS V14.01,2017-04-23 11:18:00,
2017-04-23 04:28:00,34.3,30.8,29.96,WSW,246,0.0,0.0,87,0.00,,---,0.00,VWS V14.01,2017-04-23 11:28:00,
2017-04-23 04:38:00,34.1,30.9,29.96,WSW,246,1.0,2.0,88,0.00,,---,0.00,VWS V14.01,2017-04-23 11:38:00,
2017-04-23 04:48:00,33.9,30.7,29.96,WSW,245,0.0,1.0,88,0.00,,---,0.00,VWS V14.01,2017-04-23 11:48:00,
2017-04-23 04:58:00,33.7,30.5,29.96,WSW,246,0.0,0.0,88,0.00,,---,0.00,VWS V14.01,2017-04-23 11:58:00,
2017-04-23 05:08:00,33.5,30.3,29.95,WSW,246,0.0,0.0,88,0.00,,---,0.00,VWS V14.01,2017-04-23 12:08:00,
2017-04-23 05:18:00,33.4,30.2,29.96,WSW,246,0.0,0.0,88,0.00,,---,0.00,VWS V14.01,2017-04-23 12:18:00,
2017-04-23 05:28:00,33.3,30.1,29.96,WSW,246,0.0,0.0,88,0.00,,---,0.00,VWS V14.01,2017-04-23 12:28:00,
2017-04-23 05:38:00,33.0,29.8,29.96,WSW,248,0.0,0.0,88,0.00,,---,0.00,VWS V14.01,2017-04-23 12:38:00,
2017-04-23 05:48:00,32.8,29.6,29.96,WSW,248,0.0,0.0,88,0.00,,---,0.00,VWS V14.01,2017-04-23 12:48:00,
2017-04-23 05:58:00,32.5,29.4,29.96,WSW,246,0.0,0.0,88,0.00,,---,0.00,VWS V14.01,2017-04-23 12:58:00,
2017-04-23 06:08:00,32.4,29.2,29.97,WSW,246,0.0,0.0,88,0.00,,---,0.00,VWS V14.01,2017-04-23 13:08:00,
2017-04-23 06:18:00,32.2,29.0,29.98,WSW,246,0.0,0.0,88,0.00,,---,0.00,VWS V14.01,2017-04-23 13:18:00,
2017-04-23 06:28:00,32.0,28.9,29.98,WSW,246,0.0,0.0,88,0.00,,---,0.00,VWS V14.01,2017-04-23 13:28:00,
2017-04-23 06:38:00,31.9,28.8,29.98,North,360,0.0,2.0,88,0.00,,---,0.00,VWS V14.01,2017-04-23 13:38:00,
2017-04-23 06:48:00,31.7,28.6,29.99,WSW,246,0.0,0.0,88,0.00,,---,0.00,VWS V14.01,2017-04-23 13:48:00,